sensor_id;sensor_type;location;lat;lon;timestamp;temperature;humidity
24164;DHT22;12319;49.204;8.116;2022-08-25T00:01:32;22.50;47.90
24164;DHT22;12319;49.204;8.116;2022-08-25T00:03:59;22.50;48.10
24164;DHT22;12319;49.204;8.116;2022-08-25T00:06:25;22.40;48.00
24164;DHT22;12319;49.204;8.116;2022-08-25T00:08:51;22.40;48.10
24164;DHT22;12319;49.204;8.116;2022-08-25T00:11:22;22.40;48.10
24164;DHT22;12319;49.204;8.116;2022-08-25T00:13:51;22.40;48.40
24164;DHT22;12319;49.204;8.116;2022-08-25T00:16:19;22.30;48.20
24164;DHT22;12319;49.204;8.116;2022-08-25T00:18:48;22.30;48.30
24164;DHT22;12319;49.204;8.116;2022-08-25T00:21:15;22.30;48.60
24164;DHT22;12319;49.204;8.116;2022-08-25T00:23:42;22.30;48.60
24164;DHT22;12319;49.204;8.116;2022-08-25T00:26:08;22.30;48.60
24164;DHT22;12319;49.204;8.116;2022-08-25T00:28:35;22.20;48.70
24164;DHT22;12319;49.204;8.116;2022-08-25T00:31:01;22.20;48.80
24164;DHT22;12319;49.204;8.116;2022-08-25T00:33:28;22.20;48.90
24164;DHT22;12319;49.204;8.116;2022-08-25T00:35:56;22.10;49.00
24164;DHT22;12319;49.204;8.116;2022-08-25T00:38:22;22.10;49.10
24164;DHT22;12319;49.204;8.116;2022-08-25T00:40:49;22.10;49.20
24164;DHT22;12319;49.204;8.116;2022-08-25T00:45:59;22.00;49.40
24164;DHT22;12319;49.204;8.116;2022-08-25T00:48:25;22.00;49.40
24164;DHT22;12319;49.204;8.116;2022-08-25T00:50:50;21.90;49.50
24164;DHT22;12319;49.204;8.116;2022-08-25T00:53:16;21.90;49.50
24164;DHT22;12319;49.204;8.116;2022-08-25T00:55:42;21.80;49.60
24164;DHT22;12319;49.204;8.116;2022-08-25T00:58:12;21.80;49.80
24164;DHT22;12319;49.204;8.116;2022-08-25T01:00:44;21.80;50.10
24164;DHT22;12319;49.204;8.116;2022-08-25T01:03:10;21.80;50.10
24164;DHT22;12319;49.204;8.116;2022-08-25T01:05:36;21.80;50.10
24164;DHT22;12319;49.204;8.116;2022-08-25T01:08:04;21.80;50.10
24164;DHT22;12319;49.204;8.116;2022-08-25T01:10:34;21.70;50.00
24164;DHT22;12319;49.204;8.116;2022-08-25T01:13:14;21.70;50.10
24164;DHT22;12319;49.204;8.116;2022-08-25T01:15:43;21.70;50.70
24164;DHT22;12319;49.204;8.116;2022-08-25T01:18:09;21.70;50.50
24164;DHT22;12319;49.204;8.116;2022-08-25T01:20:36;21.70;50.50
24164;DHT22;12319;49.204;8.116;2022-08-25T01:23:03;21.60;50.50
24164;DHT22;12319;49.204;8.116;2022-08-25T01:28:13;21.60;51.40
24164;DHT22;12319;49.204;8.116;2022-08-25T01:30:39;21.60;50.90
24164;DHT22;12319;49.204;8.116;2022-08-25T01:33:07;21.50;50.90
24164;DHT22;12319;49.204;8.116;2022-08-25T01:35:33;21.50;51.00
24164;DHT22;12319;49.204;8.116;2022-08-25T01:38:00;21.50;51.10
24164;DHT22;12319;49.204;8.116;2022-08-25T01:40:26;21.60;51.30
24164;DHT22;12319;49.204;8.116;2022-08-25T01:45:35;21.50;51.60
24164;DHT22;12319;49.204;8.116;2022-08-25T01:48:01;21.50;51.70
24164;DHT22;12319;49.204;8.116;2022-08-25T01:50:27;21.50;51.60
24164;DHT22;12319;49.204;8.116;2022-08-25T01:53:11;21.50;51.80
24164;DHT22;12319;49.204;8.116;2022-08-25T01:55:39;21.50;52.30
24164;DHT22;12319;49.204;8.116;2022-08-25T01:58:23;21.50;52.00
24164;DHT22;12319;49.204;8.116;2022-08-25T02:00:51;21.50;52.30
24164;DHT22;12319;49.204;8.116;2022-08-25T02:03:19;21.40;52.20
24164;DHT22;12319;49.204;8.116;2022-08-25T02:05:45;21.60;52.40
24164;DHT22;12319;49.204;8.116;2022-08-25T02:08:10;21.50;52.50
24164;DHT22;12319;49.204;8.116;2022-08-25T02:10:37;21.50;52.70
24164;DHT22;12319;49.204;8.116;2022-08-25T02:13:04;21.50;52.80
24164;DHT22;12319;49.204;8.116;2022-08-25T02:15:30;21.50;52.90
24164;DHT22;12319;49.204;8.116;2022-08-25T02:17:56;21.50;53.00
24164;DHT22;12319;49.204;8.116;2022-08-25T02:20:22;21.60;53.20
24164;DHT22;12319;49.204;8.116;2022-08-25T02:22:51;21.60;53.20
24164;DHT22;12319;49.204;8.116;2022-08-25T02:25:18;21.50;53.10
24164;DHT22;12319;49.204;8.116;2022-08-25T02:27:44;21.50;53.20
24164;DHT22;12319;49.204;8.116;2022-08-25T02:30:11;21.50;53.20
24164;DHT22;12319;49.204;8.116;2022-08-25T02:32:38;21.50;53.10
24164;DHT22;12319;49.204;8.116;2022-08-25T02:35:04;21.50;53.20
24164;DHT22;12319;49.204;8.116;2022-08-25T02:37:30;21.50;53.20
24164;DHT22;12319;49.204;8.116;2022-08-25T02:39:56;21.40;53.20
24164;DHT22;12319;49.204;8.116;2022-08-25T02:42:21;21.40;53.30
24164;DHT22;12319;49.204;8.116;2022-08-25T02:44:49;21.40;53.40
24164;DHT22;12319;49.204;8.116;2022-08-25T02:47:14;21.40;53.50
24164;DHT22;12319;49.204;8.116;2022-08-25T02:49:41;21.40;53.50
24164;DHT22;12319;49.204;8.116;2022-08-25T02:52:06;21.30;53.60
24164;DHT22;12319;49.204;8.116;2022-08-25T02:54:33;21.30;53.70
24164;DHT22;12319;49.204;8.116;2022-08-25T02:56:58;21.50;54.00
24164;DHT22;12319;49.204;8.116;2022-08-25T02:59:24;21.70;54.20
24164;DHT22;12319;49.204;8.116;2022-08-25T03:01:49;21.20;53.90
24164;DHT22;12319;49.204;8.116;2022-08-25T03:04:15;21.20;54.00
24164;DHT22;12319;49.204;8.116;2022-08-25T03:06:41;21.20;54.00
24164;DHT22;12319;49.204;8.116;2022-08-25T03:09:06;21.20;54.20
24164;DHT22;12319;49.204;8.116;2022-08-25T03:11:32;21.10;54.10
24164;DHT22;12319;49.204;8.116;2022-08-25T03:13:57;21.10;54.30
24164;DHT22;12319;49.204;8.116;2022-08-25T03:16:23;21.10;54.40
24164;DHT22;12319;49.204;8.116;2022-08-25T03:18:49;21.10;54.40
24164;DHT22;12319;49.204;8.116;2022-08-25T03:21:15;21.00;54.30
24164;DHT22;12319;49.204;8.116;2022-08-25T03:23:41;21.00;54.50
24164;DHT22;12319;49.204;8.116;2022-08-25T03:26:07;21.00;54.50
24164;DHT22;12319;49.204;8.116;2022-08-25T03:28:52;21.00;54.60
24164;DHT22;12319;49.204;8.116;2022-08-25T03:31:20;20.90;54.70
24164;DHT22;12319;49.204;8.116;2022-08-25T03:33:46;20.90;54.80
24164;DHT22;12319;49.204;8.116;2022-08-25T03:36:11;20.90;54.90
24164;DHT22;12319;49.204;8.116;2022-08-25T03:38:37;20.80;54.90
24164;DHT22;12319;49.204;8.116;2022-08-25T03:41:25;20.80;55.00
24164;DHT22;12319;49.204;8.116;2022-08-25T03:43:53;20.80;55.70
24164;DHT22;12319;49.204;8.116;2022-08-25T03:46:22;20.80;55.20
24164;DHT22;12319;49.204;8.116;2022-08-25T03:48:48;20.80;55.30
24164;DHT22;12319;49.204;8.116;2022-08-25T03:51:25;20.80;55.40
24164;DHT22;12319;49.204;8.116;2022-08-25T03:53:51;20.80;55.80
24164;DHT22;12319;49.204;8.116;2022-08-25T03:56:17;20.80;55.70
24164;DHT22;12319;49.204;8.116;2022-08-25T03:58:44;20.80;55.70
24164;DHT22;12319;49.204;8.116;2022-08-25T04:01:10;20.80;55.80
24164;DHT22;12319;49.204;8.116;2022-08-25T04:03:36;20.80;55.80
24164;DHT22;12319;49.204;8.116;2022-08-25T04:06:04;20.80;56.00
24164;DHT22;12319;49.204;8.116;2022-08-25T04:08:29;20.70;55.80
24164;DHT22;12319;49.204;8.116;2022-08-25T04:10:55;20.70;55.90
24164;DHT22;12319;49.204;8.116;2022-08-25T04:13:21;20.70;56.00
24164;DHT22;12319;49.204;8.116;2022-08-25T04:15:47;20.70;56.20
24164;DHT22;12319;49.204;8.116;2022-08-25T04:18:12;20.70;56.10
24164;DHT22;12319;49.204;8.116;2022-08-25T04:20:39;20.60;56.10
24164;DHT22;12319;49.204;8.116;2022-08-25T04:23:06;20.60;56.20
24164;DHT22;12319;49.204;8.116;2022-08-25T04:25:32;20.60;56.30
24164;DHT22;12319;49.204;8.116;2022-08-25T04:27:57;20.50;56.30
24164;DHT22;12319;49.204;8.116;2022-08-25T04:30:23;20.50;56.30
24164;DHT22;12319;49.204;8.116;2022-08-25T04:32:48;20.50;56.40
24164;DHT22;12319;49.204;8.116;2022-08-25T04:35:14;20.50;56.60
24164;DHT22;12319;49.204;8.116;2022-08-25T04:37:40;20.50;56.70
24164;DHT22;12319;49.204;8.116;2022-08-25T04:40:06;20.50;56.60
24164;DHT22;12319;49.204;8.116;2022-08-25T04:42:33;20.50;56.70
24164;DHT22;12319;49.204;8.116;2022-08-25T04:44:58;20.40;56.60
24164;DHT22;12319;49.204;8.116;2022-08-25T04:47:26;20.50;56.80
24164;DHT22;12319;49.204;8.116;2022-08-25T04:49:52;20.50;56.80
24164;DHT22;12319;49.204;8.116;2022-08-25T04:52:18;20.50;56.80
24164;DHT22;12319;49.204;8.116;2022-08-25T04:54:43;20.50;56.80
24164;DHT22;12319;49.204;8.116;2022-08-25T04:57:10;20.50;56.80
24164;DHT22;12319;49.204;8.116;2022-08-25T04:59:35;20.50;56.90
24164;DHT22;12319;49.204;8.116;2022-08-25T05:02:01;20.40;56.80
24164;DHT22;12319;49.204;8.116;2022-08-25T05:04:27;20.50;57.00
24164;DHT22;12319;49.204;8.116;2022-08-25T05:06:52;20.60;57.10
24164;DHT22;12319;49.204;8.116;2022-08-25T05:09:18;20.60;57.00
24164;DHT22;12319;49.204;8.116;2022-08-25T05:11:43;20.60;57.00
24164;DHT22;12319;49.204;8.116;2022-08-25T05:14:09;20.60;57.20
24164;DHT22;12319;49.204;8.116;2022-08-25T05:16:37;20.70;57.30
24164;DHT22;12319;49.204;8.116;2022-08-25T05:19:03;20.70;57.30
24164;DHT22;12319;49.204;8.116;2022-08-25T05:21:29;20.70;57.20
24164;DHT22;12319;49.204;8.116;2022-08-25T05:23:59;21.20;57.60
24164;DHT22;12319;49.204;8.116;2022-08-25T05:26:26;20.90;57.60
24164;DHT22;12319;49.204;8.116;2022-08-25T05:28:53;20.90;57.50
24164;DHT22;12319;49.204;8.116;2022-08-25T05:31:21;20.90;57.40
24164;DHT22;12319;49.204;8.116;2022-08-25T05:33:47;21.00;57.40
24164;DHT22;12319;49.204;8.116;2022-08-25T05:36:13;21.20;57.60
24164;DHT22;12319;49.204;8.116;2022-08-25T05:38:39;21.10;57.50
24164;DHT22;12319;49.204;8.116;2022-08-25T05:41:08;21.20;57.50
24164;DHT22;12319;49.204;8.116;2022-08-25T05:43:39;21.30;57.90
24164;DHT22;12319;49.204;8.116;2022-08-25T05:46:06;21.30;57.90
24164;DHT22;12319;49.204;8.116;2022-08-25T05:48:32;21.50;58.10
24164;DHT22;12319;49.204;8.116;2022-08-25T05:50:59;21.50;58.00
24164;DHT22;12319;49.204;8.116;2022-08-25T05:53:26;21.70;58.20
24164;DHT22;12319;49.204;8.116;2022-08-25T05:55:53;22.20;58.70
24164;DHT22;12319;49.204;8.116;2022-08-25T05:58:20;21.90;58.30
24164;DHT22;12319;49.204;8.116;2022-08-25T06:00:47;21.90;58.30
24164;DHT22;12319;49.204;8.116;2022-08-25T06:03:12;22.00;58.20
24164;DHT22;12319;49.204;8.116;2022-08-25T06:05:38;22.10;58.20
24164;DHT22;12319;49.204;8.116;2022-08-25T06:08:03;22.20;58.20
24164;DHT22;12319;49.204;8.116;2022-08-25T06:10:29;22.30;58.10
24164;DHT22;12319;49.204;8.116;2022-08-25T06:12:55;22.40;58.20
24164;DHT22;12319;49.204;8.116;2022-08-25T06:15:22;22.80;58.40
24164;DHT22;12319;49.204;8.116;2022-08-25T06:17:49;22.60;58.10
24164;DHT22;12319;49.204;8.116;2022-08-25T06:20:20;22.70;58.10
24164;DHT22;12319;49.204;8.116;2022-08-25T06:22:47;22.80;58.00
24164;DHT22;12319;49.204;8.116;2022-08-25T06:25:14;22.90;58.00
24164;DHT22;12319;49.204;8.116;2022-08-25T06:27:40;23.00;57.80
24164;DHT22;12319;49.204;8.116;2022-08-25T06:30:07;23.10;57.70
24164;DHT22;12319;49.204;8.116;2022-08-25T06:32:35;23.30;57.70
24164;DHT22;12319;49.204;8.116;2022-08-25T06:35:02;23.40;57.50
24164;DHT22;12319;49.204;8.116;2022-08-25T06:37:28;23.50;57.30
24164;DHT22;12319;49.204;8.116;2022-08-25T06:39:53;23.70;57.20
24164;DHT22;12319;49.204;8.116;2022-08-25T06:42:20;23.80;56.90
24164;DHT22;12319;49.204;8.116;2022-08-25T06:44:45;23.90;57.00
24164;DHT22;12319;49.204;8.116;2022-08-25T06:47:10;24.00;56.80
24164;DHT22;12319;49.204;8.116;2022-08-25T06:49:36;24.20;56.70
24164;DHT22;12319;49.204;8.116;2022-08-25T06:52:02;24.30;56.70
24164;DHT22;12319;49.204;8.116;2022-08-25T06:54:28;24.40;56.70
24164;DHT22;12319;49.204;8.116;2022-08-25T06:56:54;24.70;57.50
24164;DHT22;12319;49.204;8.116;2022-08-25T06:59:19;25.40;58.80
24164;DHT22;12319;49.204;8.116;2022-08-25T07:01:45;27.50;58.30
24164;DHT22;12319;49.204;8.116;2022-08-25T07:04:11;30.00;55.50
24164;DHT22;12319;49.204;8.116;2022-08-25T07:06:37;32.30;52.00
24164;DHT22;12319;49.204;8.116;2022-08-25T07:09:04;34.30;50.30
24164;DHT22;12319;49.204;8.116;2022-08-25T07:11:30;36.10;47.90
24164;DHT22;12319;49.204;8.116;2022-08-25T07:13:59;37.70;45.60
24164;DHT22;12319;49.204;8.116;2022-08-25T07:16:25;38.80;44.60
24164;DHT22;12319;49.204;8.116;2022-08-25T07:18:51;39.60;41.70
24164;DHT22;12319;49.204;8.116;2022-08-25T07:21:23;40.30;41.20
24164;DHT22;12319;49.204;8.116;2022-08-25T07:23:49;41.10;39.60
24164;DHT22;12319;49.204;8.116;2022-08-25T07:26:17;41.80;37.90
24164;DHT22;12319;49.204;8.116;2022-08-25T07:28:43;42.30;36.70
24164;DHT22;12319;49.204;8.116;2022-08-25T07:31:09;42.80;36.40
24164;DHT22;12319;49.204;8.116;2022-08-25T07:33:35;43.30;35.60
24164;DHT22;12319;49.204;8.116;2022-08-25T07:36:01;43.70;35.00
24164;DHT22;12319;49.204;8.116;2022-08-25T07:38:27;44.10;34.60
24164;DHT22;12319;49.204;8.116;2022-08-25T07:41:01;44.50;34.30
24164;DHT22;12319;49.204;8.116;2022-08-25T07:43:27;44.90;32.20
24164;DHT22;12319;49.204;8.116;2022-08-25T07:45:52;45.20;33.10
24164;DHT22;12319;49.204;8.116;2022-08-25T07:48:18;45.50;32.90
24164;DHT22;12319;49.204;8.116;2022-08-25T07:50:46;45.50;31.80
24164;DHT22;12319;49.204;8.116;2022-08-25T07:53:14;45.70;31.90
24164;DHT22;12319;49.204;8.116;2022-08-25T07:55:40;46.00;31.40
24164;DHT22;12319;49.204;8.116;2022-08-25T07:58:07;46.30;30.90
24164;DHT22;12319;49.204;8.116;2022-08-25T08:00:34;46.50;30.60
24164;DHT22;12319;49.204;8.116;2022-08-25T08:03:03;46.80;30.50
24164;DHT22;12319;49.204;8.116;2022-08-25T08:05:29;47.20;30.00
24164;DHT22;12319;49.204;8.116;2022-08-25T08:07:55;47.40;30.00
24164;DHT22;12319;49.204;8.116;2022-08-25T08:10:22;47.60;30.10
24164;DHT22;12319;49.204;8.116;2022-08-25T08:12:48;47.80;29.30
24164;DHT22;12319;49.204;8.116;2022-08-25T08:15:14;48.00;29.20
24164;DHT22;12319;49.204;8.116;2022-08-25T08:17:40;48.00;28.70
24164;DHT22;12319;49.204;8.116;2022-08-25T08:20:07;48.00;28.70
24164;DHT22;12319;49.204;8.116;2022-08-25T08:22:39;48.10;28.50
24164;DHT22;12319;49.204;8.116;2022-08-25T08:25:06;48.40;27.70
24164;DHT22;12319;49.204;8.116;2022-08-25T08:27:32;48.70;28.40
24164;DHT22;12319;49.204;8.116;2022-08-25T08:29:57;48.70;27.80
24164;DHT22;12319;49.204;8.116;2022-08-25T08:32:23;48.70;27.60
24164;DHT22;12319;49.204;8.116;2022-08-25T08:34:48;48.60;27.20
24164;DHT22;12319;49.204;8.116;2022-08-25T08:37:15;48.50;27.20
24164;DHT22;12319;49.204;8.116;2022-08-25T08:39:40;48.50;27.20
24164;DHT22;12319;49.204;8.116;2022-08-25T08:52:15;47.80;26.30
24164;DHT22;12319;49.204;8.116;2022-08-25T08:54:42;47.40;26.60
24164;DHT22;12319;49.204;8.116;2022-08-25T08:57:13;47.00;26.40
24164;DHT22;12319;49.204;8.116;2022-08-25T08:59:48;46.60;26.10
24164;DHT22;12319;49.204;8.116;2022-08-25T09:02:35;46.00;26.10
24164;DHT22;12319;49.204;8.116;2022-08-25T09:05:08;45.60;26.10
24164;DHT22;12319;49.204;8.116;2022-08-25T09:07:49;44.90;26.40
24164;DHT22;12319;49.204;8.116;2022-08-25T09:10:17;43.70;26.70
24164;DHT22;12319;49.204;8.116;2022-08-25T09:13:06;42.20;27.40
24164;DHT22;12319;49.204;8.116;2022-08-25T09:18:37;39.30;29.00
24164;DHT22;12319;49.204;8.116;2022-08-25T09:27:16;36.10;32.30
24164;DHT22;12319;49.204;8.116;2022-08-25T09:30:08;35.40;33.90
24164;DHT22;12319;49.204;8.116;2022-08-25T09:32:40;34.80;34.10
24164;DHT22;12319;49.204;8.116;2022-08-25T09:35:16;34.40;33.80
24164;DHT22;12319;49.204;8.116;2022-08-25T09:37:55;34.20;34.30
24164;DHT22;12319;49.204;8.116;2022-08-25T09:40:21;33.90;35.30
24164;DHT22;12319;49.204;8.116;2022-08-25T09:42:50;33.60;35.10
24164;DHT22;12319;49.204;8.116;2022-08-25T09:45:40;33.40;35.80
24164;DHT22;12319;49.204;8.116;2022-08-25T09:48:33;33.00;36.70
24164;DHT22;12319;49.204;8.116;2022-08-25T09:56:24;32.70;36.90
24164;DHT22;12319;49.204;8.116;2022-08-25T09:58:50;32.70;37.40
24164;DHT22;12319;49.204;8.116;2022-08-25T10:01:19;32.50;37.50
24164;DHT22;12319;49.204;8.116;2022-08-25T10:04:00;32.50;37.50
24164;DHT22;12319;49.204;8.116;2022-08-25T10:06:32;32.50;38.60
24164;DHT22;12319;49.204;8.116;2022-08-25T10:09:03;32.50;37.80
24164;DHT22;12319;49.204;8.116;2022-08-25T10:11:39;32.50;37.70
24164;DHT22;12319;49.204;8.116;2022-08-25T10:14:19;32.50;38.10
24164;DHT22;12319;49.204;8.116;2022-08-25T10:16:47;32.50;38.20
24164;DHT22;12319;49.204;8.116;2022-08-25T10:22:06;32.50;38.60
24164;DHT22;12319;49.204;8.116;2022-08-25T10:24:34;32.50;38.70
24164;DHT22;12319;49.204;8.116;2022-08-25T10:33:23;32.50;39.30
24164;DHT22;12319;49.204;8.116;2022-08-25T10:38:44;32.60;39.00
24164;DHT22;12319;49.204;8.116;2022-08-25T10:43:52;32.60;38.70
24164;DHT22;12319;49.204;8.116;2022-08-25T10:46:39;32.50;38.90
24164;DHT22;12319;49.204;8.116;2022-08-25T10:49:44;32.50;39.10
24164;DHT22;12319;49.204;8.116;2022-08-25T10:52:21;32.50;39.40
24164;DHT22;12319;49.204;8.116;2022-08-25T10:58:33;32.60;39.60
24164;DHT22;12319;49.204;8.116;2022-08-25T11:04:35;32.50;39.50
24164;DHT22;12319;49.204;8.116;2022-08-25T11:07:10;32.30;39.50
24164;DHT22;12319;49.204;8.116;2022-08-25T11:09:40;32.30;39.30
24164;DHT22;12319;49.204;8.116;2022-08-25T11:12:08;32.20;39.30
24164;DHT22;12319;49.204;8.116;2022-08-25T11:18:08;32.20;40.00
24164;DHT22;12319;49.204;8.116;2022-08-25T11:20:50;32.40;39.50
24164;DHT22;12319;49.204;8.116;2022-08-25T11:23:32;32.40;39.70
24164;DHT22;12319;49.204;8.116;2022-08-25T11:26:07;32.50;39.70
24164;DHT22;12319;49.204;8.116;2022-08-25T11:31:08;32.70;39.30
24164;DHT22;12319;49.204;8.116;2022-08-25T11:33:35;32.80;39.20
24164;DHT22;12319;49.204;8.116;2022-08-25T11:36:47;32.80;39.10
24164;DHT22;12319;49.204;8.116;2022-08-25T11:39:22;32.80;39.00
24164;DHT22;12319;49.204;8.116;2022-08-25T11:42:20;32.90;39.10
24164;DHT22;12319;49.204;8.116;2022-08-25T11:45:18;32.90;39.00
24164;DHT22;12319;49.204;8.116;2022-08-25T11:50:33;32.80;38.90
24164;DHT22;12319;49.204;8.116;2022-08-25T11:53:18;32.90;38.80
24164;DHT22;12319;49.204;8.116;2022-08-25T11:55:49;33.10;38.70
24164;DHT22;12319;49.204;8.116;2022-08-25T11:58:38;33.10;38.50
24164;DHT22;12319;49.204;8.116;2022-08-25T12:03:52;33.50;38.20
24164;DHT22;12319;49.204;8.116;2022-08-25T12:11:48;33.70;38.10
24164;DHT22;12319;49.204;8.116;2022-08-25T12:24:54;34.90;37.00
24164;DHT22;12319;49.204;8.116;2022-08-25T12:27:37;35.20;36.60
24164;DHT22;12319;49.204;8.116;2022-08-25T12:36:03;35.90;35.60
24164;DHT22;12319;49.204;8.116;2022-08-25T12:38:34;36.20;35.10
24164;DHT22;12319;49.204;8.116;2022-08-25T12:41:17;36.30;35.50
24164;DHT22;12319;49.204;8.116;2022-08-25T12:43:48;36.40;34.70
24164;DHT22;12319;49.204;8.116;2022-08-25T12:49:10;36.60;34.90
24164;DHT22;12319;49.204;8.116;2022-08-25T12:51:56;36.60;34.00
24164;DHT22;12319;49.204;8.116;2022-08-25T12:54:44;36.60;34.40
24164;DHT22;12319;49.204;8.116;2022-08-25T13:01:09;36.90;33.10
24164;DHT22;12319;49.204;8.116;2022-08-25T13:06:59;36.80;33.20
24164;DHT22;12319;49.204;8.116;2022-08-25T13:12:35;36.70;33.60
24164;DHT22;12319;49.204;8.116;2022-08-25T13:15:04;36.80;33.30
24164;DHT22;12319;49.204;8.116;2022-08-25T13:17:33;36.90;33.80
24164;DHT22;12319;49.204;8.116;2022-08-25T13:20:21;36.90;33.80
24164;DHT22;12319;49.204;8.116;2022-08-25T13:22:50;37.00;33.20
24164;DHT22;12319;49.204;8.116;2022-08-25T13:25:18;37.30;33.50
24164;DHT22;12319;49.204;8.116;2022-08-25T13:27:49;37.60;33.20
24164;DHT22;12319;49.204;8.116;2022-08-25T13:30:26;37.70;32.90
24164;DHT22;12319;49.204;8.116;2022-08-25T13:32:52;37.60;33.30
24164;DHT22;12319;49.204;8.116;2022-08-25T13:35:26;37.70;32.80
24164;DHT22;12319;49.204;8.116;2022-08-25T13:37:52;37.90;32.50
24164;DHT22;12319;49.204;8.116;2022-08-25T13:40:26;37.90;32.40
24164;DHT22;12319;49.204;8.116;2022-08-25T13:42:55;37.90;31.90
24164;DHT22;12319;49.204;8.116;2022-08-25T13:45:25;37.80;32.00
24164;DHT22;12319;49.204;8.116;2022-08-25T13:47:51;37.70;32.00
24164;DHT22;12319;49.204;8.116;2022-08-25T13:53:15;37.80;31.90
24164;DHT22;12319;49.204;8.116;2022-08-25T13:55:54;37.90;31.30
24164;DHT22;12319;49.204;8.116;2022-08-25T13:58:33;38.00;31.70
24164;DHT22;12319;49.204;8.116;2022-08-25T14:01:14;37.70;31.50
24164;DHT22;12319;49.204;8.116;2022-08-25T14:03:43;37.20;31.30
24164;DHT22;12319;49.204;8.116;2022-08-25T14:08:43;36.80;32.10
24164;DHT22;12319;49.204;8.116;2022-08-25T14:11:15;36.60;32.10
24164;DHT22;12319;49.204;8.116;2022-08-25T14:13:59;36.50;32.40
24164;DHT22;12319;49.204;8.116;2022-08-25T14:16:24;36.30;32.60
24164;DHT22;12319;49.204;8.116;2022-08-25T14:18:57;36.20;32.80
24164;DHT22;12319;49.204;8.116;2022-08-25T14:21:27;36.10;32.70
24164;DHT22;12319;49.204;8.116;2022-08-25T14:23:54;36.20;32.80
24164;DHT22;12319;49.204;8.116;2022-08-25T14:26:20;36.20;32.80
24164;DHT22;12319;49.204;8.116;2022-08-25T14:28:45;36.30;32.80
24164;DHT22;12319;49.204;8.116;2022-08-25T14:31:14;36.30;32.80
24164;DHT22;12319;49.204;8.116;2022-08-25T14:36:17;36.10;32.70
24164;DHT22;12319;49.204;8.116;2022-08-25T14:38:43;35.90;32.90
24164;DHT22;12319;49.204;8.116;2022-08-25T14:41:08;35.60;32.90
24164;DHT22;12319;49.204;8.116;2022-08-25T14:43:34;35.50;33.10
24164;DHT22;12319;49.204;8.116;2022-08-25T14:46:02;35.30;33.20
24164;DHT22;12319;49.204;8.116;2022-08-25T14:48:34;35.00;33.40
24164;DHT22;12319;49.204;8.116;2022-08-25T14:51:03;34.80;33.60
24164;DHT22;12319;49.204;8.116;2022-08-25T14:53:29;34.50;33.70
24164;DHT22;12319;49.204;8.116;2022-08-25T14:55:55;34.00;33.60
24164;DHT22;12319;49.204;8.116;2022-08-25T14:58:22;33.90;34.00
24164;DHT22;12319;49.204;8.116;2022-08-25T15:00:48;33.70;34.20
24164;DHT22;12319;49.204;8.116;2022-08-25T15:03:16;33.40;34.40
24164;DHT22;12319;49.204;8.116;2022-08-25T15:05:43;33.30;34.60
24164;DHT22;12319;49.204;8.116;2022-08-25T15:08:09;33.10;34.80
24164;DHT22;12319;49.204;8.116;2022-08-25T15:10:53;33.00;34.90
24164;DHT22;12319;49.204;8.116;2022-08-25T15:13:19;32.90;35.10
24164;DHT22;12319;49.204;8.116;2022-08-25T15:15:45;32.70;35.30
24164;DHT22;12319;49.204;8.116;2022-08-25T15:18:12;33.20;35.60
24164;DHT22;12319;49.204;8.116;2022-08-25T15:20:38;32.60;35.30
24164;DHT22;12319;49.204;8.116;2022-08-25T15:23:03;32.50;35.40
24164;DHT22;12319;49.204;8.116;2022-08-25T15:25:29;32.50;35.50
24164;DHT22;12319;49.204;8.116;2022-08-25T15:27:55;32.50;35.50
24164;DHT22;12319;49.204;8.116;2022-08-25T15:30:21;32.50;35.60
24164;DHT22;12319;49.204;8.116;2022-08-25T15:32:46;32.40;35.60
24164;DHT22;12319;49.204;8.116;2022-08-25T15:35:12;32.40;35.70
24164;DHT22;12319;49.204;8.116;2022-08-25T15:37:38;32.50;35.90
24164;DHT22;12319;49.204;8.116;2022-08-25T15:40:04;32.30;35.90
24164;DHT22;12319;49.204;8.116;2022-08-25T15:42:30;32.40;36.00
24164;DHT22;12319;49.204;8.116;2022-08-25T15:44:56;32.30;36.00
24164;DHT22;12319;49.204;8.116;2022-08-25T15:47:22;32.30;36.00
24164;DHT22;12319;49.204;8.116;2022-08-25T15:49:48;32.20;36.00
24164;DHT22;12319;49.204;8.116;2022-08-25T15:52:14;32.30;36.20
24164;DHT22;12319;49.204;8.116;2022-08-25T15:54:40;32.30;36.30
24164;DHT22;12319;49.204;8.116;2022-08-25T15:57:06;32.20;36.30
24164;DHT22;12319;49.204;8.116;2022-08-25T15:59:31;32.20;36.40
24164;DHT22;12319;49.204;8.116;2022-08-25T16:01:57;32.10;36.40
24164;DHT22;12319;49.204;8.116;2022-08-25T16:04:25;32.10;36.50
24164;DHT22;12319;49.204;8.116;2022-08-25T16:06:51;32.00;36.50
24164;DHT22;12319;49.204;8.116;2022-08-25T16:09:17;31.90;36.50
24164;DHT22;12319;49.204;8.116;2022-08-25T16:11:42;32.00;36.60
24164;DHT22;12319;49.204;8.116;2022-08-25T16:14:09;32.00;36.60
24164;DHT22;12319;49.204;8.116;2022-08-25T16:16:36;32.00;36.60
24164;DHT22;12319;49.204;8.116;2022-08-25T16:19:02;31.80;36.60
24164;DHT22;12319;49.204;8.116;2022-08-25T16:21:32;31.70;36.80
24164;DHT22;12319;49.204;8.116;2022-08-25T16:24:02;31.70;36.90
24164;DHT22;12319;49.204;8.116;2022-08-25T16:26:29;31.80;37.00
24164;DHT22;12319;49.204;8.116;2022-08-25T16:28:55;31.90;37.00
24164;DHT22;12319;49.204;8.116;2022-08-25T16:31:21;31.70;36.90
24164;DHT22;12319;49.204;8.116;2022-08-25T16:33:47;31.70;36.90
24164;DHT22;12319;49.204;8.116;2022-08-25T16:36:21;31.70;36.90
24164;DHT22;12319;49.204;8.116;2022-08-25T16:38:49;31.60;36.80
24164;DHT22;12319;49.204;8.116;2022-08-25T16:41:21;31.50;36.80
24164;DHT22;12319;49.204;8.116;2022-08-25T16:43:47;31.50;36.80
24164;DHT22;12319;49.204;8.116;2022-08-25T16:46:14;31.60;36.90
24164;DHT22;12319;49.204;8.116;2022-08-25T16:48:41;31.50;36.90
24164;DHT22;12319;49.204;8.116;2022-08-25T16:51:12;31.40;37.00
24164;DHT22;12319;49.204;8.116;2022-08-25T16:53:38;31.30;37.10
24164;DHT22;12319;49.204;8.116;2022-08-25T16:56:23;31.40;37.20
24164;DHT22;12319;49.204;8.116;2022-08-25T16:58:59;31.30;37.20
24164;DHT22;12319;49.204;8.116;2022-08-25T17:01:27;31.30;37.40
24164;DHT22;12319;49.204;8.116;2022-08-25T17:03:55;31.30;37.40
24164;DHT22;12319;49.204;8.116;2022-08-25T17:06:23;31.20;37.40
24164;DHT22;12319;49.204;8.116;2022-08-25T17:08:49;31.20;37.40
24164;DHT22;12319;49.204;8.116;2022-08-25T17:11:19;31.20;37.50
24164;DHT22;12319;49.204;8.116;2022-08-25T17:13:48;31.10;37.60
24164;DHT22;12319;49.204;8.116;2022-08-25T17:16:14;31.30;37.80
24164;DHT22;12319;49.204;8.116;2022-08-25T17:18:41;31.00;37.70
24164;DHT22;12319;49.204;8.116;2022-08-25T17:21:10;31.00;37.80
24164;DHT22;12319;49.204;8.116;2022-08-25T17:23:41;30.90;37.90
24164;DHT22;12319;49.204;8.116;2022-08-25T17:26:10;30.90;37.90
24164;DHT22;12319;49.204;8.116;2022-08-25T17:28:36;30.80;38.00
24164;DHT22;12319;49.204;8.116;2022-08-25T17:31:01;30.80;38.10